createdAt,value
2019-02-19T00:02:49.924Z,101479.87
2019-02-19T00:05:41.046Z,101481.12
2019-02-19T00:08:31.297Z,101478.32
2019-02-19T00:11:21.578Z,101477.83
2019-02-19T00:14:12.087Z,101477.91
2019-02-19T00:17:02.294Z,101477.91
2019-02-19T00:19:52.781Z,101476.28
2019-02-19T00:22:44.175Z,101473.12
2019-02-19T00:25:34.998Z,101480.83
2019-02-19T00:28:25.383Z,101477.78
2019-02-19T00:31:15.374Z,101480.83
2019-02-19T00:34:05.672Z,101460.66
2019-02-19T00:36:56.154Z,101477.99
2019-02-19T00:39:46.562Z,101477.28
2019-02-19T00:42:36.866Z,101475.73
2019-02-19T00:45:27.097Z,101467.07
2019-02-19T00:48:17.689Z,101470.77
2019-02-19T00:51:07.850Z,101469.73
2019-02-19T00:53:58.274Z,101462.81
2019-02-19T00:56:48.333Z,101469.02
2019-02-19T00:59:41.153Z,101457.39
2019-02-19T01:02:31.464Z,101459.11
2019-02-19T01:05:21.747Z,101456.06
2019-02-19T01:08:12.194Z,101456.69
2019-02-19T01:11:02.571Z,101455.11
2019-02-19T01:13:54.189Z,101449.94
2019-02-19T01:16:44.426Z,101444.36
2019-02-19T01:19:34.790Z,101440.59
2019-02-19T01:22:25.130Z,101440.84
2019-02-19T01:25:15.478Z,101436.42
2019-02-19T01:28:05.548Z,101439.25
2019-02-19T01:30:55.930Z,101436.42
2019-02-19T01:33:46.262Z,101430.02
2019-02-19T01:36:36.442Z,101424.86
2019-02-19T01:39:26.571Z,101426.49
2019-02-19T01:42:16.852Z,101420.57
2019-02-19T01:45:08.400Z,101423.16
2019-02-19T01:47:58.340Z,101425.20
2019-02-19T01:50:48.681Z,101416.81
2019-02-19T01:53:38.948Z,101420.98
2019-02-19T01:56:29.435Z,101422.69
2019-02-19T01:59:19.861Z,101421.73
2019-02-19T02:02:10.232Z,101417.28
2019-02-19T02:05:00.545Z,101410.07
2019-02-19T02:07:50.917Z,101408.19
2019-02-19T02:10:40.837Z,101404.11
2019-02-19T02:13:31.217Z,101400.98
2019-02-19T02:16:21.521Z,101397.77
2019-02-19T02:19:11.827Z,101403.85
2019-02-19T02:22:02.106Z,101396.98
2019-02-19T02:24:52.576Z,101395.94
2019-02-19T02:27:43.142Z,101393.53
2019-02-19T02:30:33.610Z,101391.02
2019-02-19T02:33:25.008Z,101397.16
2019-02-19T02:36:15.133Z,101391.53
2019-02-19T02:39:06.629Z,101384.55
2019-02-19T02:41:56.663Z,101384.79
2019-02-19T02:44:46.936Z,101377.72
2019-02-19T02:47:37.307Z,101390.37
2019-02-19T02:50:27.316Z,101381.95
2019-02-19T02:53:17.515Z,101392.24
2019-02-19T02:56:08.994Z,101388.00
2019-02-19T02:58:59.220Z,101380.33
2019-02-19T03:01:49.788Z,101379.84
2019-02-19T03:04:40.279Z,101384.25
2019-02-19T03:07:49.221Z,101385.04
2019-02-19T03:10:39.188Z,101378.83
2019-02-19T03:13:29.175Z,101385.09
2019-02-19T03:16:19.500Z,101384.79
2019-02-19T03:19:09.855Z,101387.38
2019-02-19T03:22:00.048Z,101386.20
2019-02-19T03:24:50.448Z,101384.55
2019-02-19T03:27:40.828Z,101383.70
2019-02-19T03:30:30.868Z,101383.92
2019-02-19T03:33:21.263Z,101389.33
2019-02-19T03:36:11.741Z,101377.17
2019-02-19T03:39:02.265Z,101379.37
2019-02-19T03:41:52.565Z,101382.04
2019-02-19T03:44:42.835Z,101388.61
2019-02-19T03:47:33.096Z,101378.28
2019-02-19T03:50:23.490Z,101380.69
2019-02-19T03:53:13.715Z,101381.31
2019-02-19T03:56:03.933Z,101385.69
2019-02-19T03:58:54.146Z,101388.14
2019-02-19T04:01:44.531Z,101385.86
2019-02-19T04:04:34.822Z,101391.19
2019-02-19T04:07:25.330Z,101395.81
2019-02-19T04:10:15.561Z,101392.77
2019-02-19T04:13:05.871Z,101390.57
2019-02-19T04:15:57.313Z,101386.81
2019-02-19T04:18:47.602Z,101396.14
2019-02-19T04:21:37.879Z,101392.60
2019-02-19T04:24:28.205Z,101391.52
2019-02-19T04:27:18.240Z,101389.86
2019-02-19T04:30:08.603Z,101390.09
2019-02-19T04:32:59.038Z,101388.13
2019-02-19T04:35:49.304Z,101395.00
2019-02-19T04:38:39.581Z,101402.23
2019-02-19T04:41:29.771Z,101405.97
2019-02-19T04:44:19.785Z,101397.34
2019-02-19T04:47:10.244Z,101394.97
2019-02-19T04:50:00.494Z,101397.54
2019-02-19T04:52:50.783Z,101397.14
2019-02-19T04:55:42.103Z,101397.85
2019-02-19T04:58:35.179Z,101401.69
2019-02-19T05:01:25.312Z,101410.09
2019-02-19T05:04:15.646Z,101410.02
2019-02-19T05:07:05.995Z,101413.00
2019-02-19T05:09:56.546Z,101411.69
2019-02-19T05:12:47.043Z,101411.52
2019-02-19T05:15:37.352Z,101422.27
2019-02-19T05:18:27.686Z,101421.70
2019-02-19T05:21:18.061Z,101421.65
2019-02-19T05:24:08.312Z,101415.44
2019-02-19T05:26:58.492Z,101411.98
2019-02-19T05:29:48.883Z,101415.44
2019-02-19T05:32:39.398Z,101425.08
2019-02-19T05:35:29.735Z,101423.91
2019-02-19T05:38:20.186Z,101426.07
2019-02-19T05:41:10.618Z,101426.69
2019-02-19T05:44:00.970Z,101424.89
2019-02-19T05:46:54.998Z,101431.92
2019-02-19T05:49:46.800Z,101439.44
2019-02-19T05:52:37.319Z,101446.83
2019-02-19T05:55:27.640Z,101451.99
2019-02-19T05:58:17.957Z,101454.35
2019-02-19T06:01:08.263Z,101446.27
2019-02-19T06:03:58.545Z,101452.33
2019-02-19T06:06:49.094Z,101458.47
2019-02-19T06:09:40.263Z,101457.45
2019-02-19T06:12:30.544Z,101461.16
2019-02-19T06:15:20.939Z,101459.59
2019-02-19T06:18:11.482Z,101455.77
2019-02-19T06:21:01.875Z,101455.20
2019-02-19T06:23:52.876Z,101462.17
2019-02-19T06:26:43.064Z,101461.52
2019-02-19T06:29:33.205Z,101453.87
2019-02-19T06:32:23.230Z,101466.70
2019-02-19T06:35:13.605Z,101461.86
2019-02-19T06:38:03.848Z,101465.88
2019-02-19T06:40:54.526Z,101464.40
2019-02-19T06:43:45.124Z,101458.06
2019-02-19T06:46:36.120Z,101466.44
2019-02-19T06:49:27.097Z,101464.20
2019-02-19T06:52:18.134Z,101466.70
2019-02-19T06:55:09.172Z,101469.77
2019-02-19T06:58:00.714Z,101470.80
2019-02-19T07:00:51.731Z,101476.41
2019-02-19T07:03:51.024Z,101478.50
2019-02-19T07:06:41.658Z,101481.59
2019-02-19T07:09:32.640Z,101477.66
2019-02-19T07:12:23.518Z,101480.75
2019-02-19T07:15:17.008Z,101487.84
2019-02-19T07:18:07.895Z,101487.67
2019-02-19T07:20:58.822Z,101475.62
2019-02-19T07:23:49.459Z,101479.11
2019-02-19T07:26:40.454Z,101487.84
2019-02-19T07:29:31.626Z,101492.42
2019-02-19T07:32:22.778Z,101490.14
2019-02-19T07:35:13.735Z,101490.21
2019-02-19T07:38:04.656Z,101489.44
2019-02-19T07:40:55.515Z,101492.05
2019-02-19T07:43:46.407Z,101489.26
2019-02-19T07:46:37.336Z,101488.20
2019-02-19T07:49:28.215Z,101497.87
2019-02-19T07:52:19.070Z,101488.55
2019-02-19T07:55:09.889Z,101486.36
2019-02-19T07:58:00.888Z,101486.72
2019-02-19T08:00:52.025Z,101479.84
2019-02-19T08:03:42.828Z,101488.61
2019-02-19T08:06:33.749Z,101486.63
2019-02-19T08:09:24.593Z,101482.64
2019-02-19T08:12:15.554Z,101481.00
2019-02-19T08:15:06.842Z,101479.53
2019-02-19T08:18:01.987Z,101490.05
2019-02-19T08:20:52.951Z,101487.03
2019-02-19T08:23:44.179Z,101483.09
2019-02-19T08:26:34.903Z,101479.37
2019-02-19T08:29:26.053Z,101483.45
2019-02-19T08:32:16.923Z,101482.41
2019-02-19T08:35:08.043Z,101479.62
2019-02-19T08:37:58.953Z,101481.72
2019-02-19T08:40:49.843Z,101491.61
2019-02-19T08:43:40.599Z,101491.52
2019-02-19T08:46:31.536Z,101489.15
2019-02-19T08:49:22.417Z,101493.21
2019-02-19T08:52:13.348Z,101498.47
2019-02-19T08:55:04.229Z,101493.62
2019-02-19T08:57:55.574Z,101490.09
2019-02-19T09:00:46.317Z,101500.55
2019-02-19T09:03:36.588Z,101493.41
2019-02-19T09:06:27.702Z,101493.70
2019-02-19T09:09:17.826Z,101486.34
2019-02-19T09:12:08.186Z,101496.35
2019-02-19T09:14:58.709Z,101500.19
2019-02-19T09:17:52.001Z,101493.31
2019-02-19T09:20:41.167Z,101484.87
2019-02-19T09:23:31.430Z,101484.19
2019-02-19T09:26:21.672Z,101485.04
2019-02-19T09:29:11.911Z,101487.59
2019-02-19T09:32:02.760Z,101485.34
2019-02-19T09:34:52.798Z,101489.12
2019-02-19T09:37:43.347Z,101484.77
2019-02-19T09:40:33.659Z,101484.25
2019-02-19T09:43:25.358Z,101484.27
2019-02-19T09:46:15.597Z,101474.45
2019-02-19T09:49:06.163Z,101479.22
2019-02-19T09:51:56.244Z,101476.38
2019-02-19T09:54:46.926Z,101471.59
2019-02-19T09:57:37.229Z,101468.11
2019-02-19T10:00:27.369Z,101467.55
2019-02-19T10:03:17.765Z,101459.88
2019-02-19T10:06:08.012Z,101461.55
2019-02-19T10:08:59.078Z,101462.23
2019-02-19T10:11:49.393Z,101460.11
2019-02-19T10:14:39.576Z,101451.91
2019-02-19T10:17:29.987Z,101445.38
2019-02-19T10:20:20.593Z,101449.76
2019-02-19T10:23:10.916Z,101448.25
2019-02-19T10:26:02.247Z,101445.27
2019-02-19T10:28:52.555Z,101445.78
2019-02-19T10:31:42.854Z,101445.14
2019-02-19T10:34:33.573Z,101444.25
2019-02-19T10:37:23.890Z,101442.89
2019-02-19T10:40:15.696Z,101442.65
2019-02-19T10:43:05.710Z,101435.09
2019-02-19T10:45:56.053Z,101435.53
2019-02-19T10:48:47.356Z,101428.38
2019-02-19T10:51:38.507Z,101425.88
2019-02-19T10:54:28.747Z,101417.28
2019-02-19T10:57:19.237Z,101419.37
2019-02-19T11:00:13.246Z,101420.76
2019-02-19T11:03:03.648Z,101408.19
2019-02-19T11:05:56.843Z,101416.58
2019-02-19T11:08:47.056Z,101403.33
2019-02-19T11:11:37.289Z,101403.77
2019-02-19T11:14:27.698Z,101407.36
2019-02-19T11:17:19.814Z,101404.50
2019-02-19T11:20:11.326Z,101393.91
2019-02-19T11:23:01.265Z,101386.98
2019-02-19T11:25:51.617Z,101390.91
2019-02-19T11:28:41.609Z,101384.38
2019-02-19T11:31:32.016Z,101383.22
2019-02-19T11:34:22.133Z,101385.08
2019-02-19T11:37:12.512Z,101379.37
2019-02-19T11:40:02.805Z,101377.10
2019-02-19T11:42:53.692Z,101373.83
2019-02-19T11:45:44.105Z,101377.23
2019-02-19T11:48:36.932Z,101372.25
2019-02-19T11:51:26.482Z,101371.33
2019-02-19T11:54:16.684Z,101362.67
2019-02-19T11:57:06.967Z,101366.20
2019-02-19T11:59:57.003Z,101363.39
2019-02-19T12:02:47.253Z,101354.56
2019-02-19T12:05:37.365Z,101352.81
2019-02-19T12:08:27.682Z,101351.05
2019-02-19T12:11:18.295Z,101342.42
2019-02-19T12:14:08.478Z,101342.53
2019-02-19T12:16:59.109Z,101340.49
2019-02-19T12:19:49.306Z,101341.18
2019-02-19T12:22:39.441Z,101332.95
2019-02-19T12:25:29.766Z,101336.16
2019-02-19T12:28:22.900Z,101322.59
2019-02-19T12:31:13.089Z,101323.11
2019-02-19T12:34:03.148Z,101313.86
2019-02-19T12:36:53.467Z,101320.02
2019-02-19T12:39:43.864Z,101313.72
2019-02-19T12:42:34.237Z,101306.38
2019-02-19T12:45:24.759Z,101309.14
2019-02-19T12:48:15.293Z,101311.03
2019-02-19T12:51:05.541Z,101306.31
2019-02-19T12:53:55.569Z,101306.86
2019-02-19T12:56:45.800Z,101302.78
2019-02-19T12:59:36.098Z,101308.20
2019-02-19T13:02:26.469Z,101305.28
2019-02-19T13:05:16.526Z,101306.91
2019-02-19T13:08:07.030Z,101301.70
2019-02-19T13:10:57.330Z,101299.20
2019-02-19T13:13:47.540Z,101296.84
2019-02-19T13:16:38.012Z,101294.18
2019-02-19T13:19:28.143Z,101291.09
2019-02-19T13:22:18.485Z,101291.84
2019-02-19T13:25:09.444Z,101290.16
2019-02-19T13:27:59.408Z,101286.01
2019-02-19T13:30:49.837Z,101286.76
2019-02-19T13:33:40.080Z,101277.23
2019-02-19T13:36:30.227Z,101282.14
2019-02-19T13:39:20.305Z,101283.53
2019-02-19T13:42:10.632Z,101272.78
2019-02-19T13:45:00.965Z,101278.63
2019-02-19T13:47:51.378Z,101279.56
2019-02-19T13:50:41.537Z,101279.88
2019-02-19T13:53:54.614Z,101277.87
2019-02-19T13:56:45.668Z,101276.19
2019-02-19T13:59:36.370Z,101259.66
2019-02-19T14:02:26.742Z,101270.34
2019-02-19T14:05:17.165Z,101270.06
2019-02-19T14:08:14.224Z,101257.16
2019-02-19T14:10:59.076Z,101264.78
2019-02-19T14:14:05.569Z,101257.73
2019-02-19T14:17:02.344Z,101250.37
2019-02-19T14:20:17.376Z,101261.52
2019-02-19T14:23:30.013Z,101256.89
2019-02-19T14:26:51.161Z,101250.53
2019-02-19T14:30:15.804Z,101249.16
2019-02-19T14:33:48.629Z,101250.83
2019-02-19T14:36:49.918Z,101249.25
2019-02-19T14:40:10.342Z,101241.83
2019-02-19T14:43:18.488Z,101246.58
2019-02-19T14:46:33.508Z,101236.33
2019-02-19T14:49:47.511Z,101238.75
2019-02-19T14:52:51.491Z,101231.52
2019-02-19T14:56:19.069Z,101232.74
2019-02-19T14:59:31.026Z,101229.91
2019-02-19T15:02:52.254Z,101228.56
2019-02-19T15:06:07.864Z,101230.46
2019-02-19T15:09:29.270Z,101227.11
2019-02-19T15:12:41.554Z,101219.99
2019-02-19T15:16:06.069Z,101223.16
2019-02-19T15:19:19.866Z,101219.71
2019-02-19T15:22:36.348Z,101210.86
2019-02-19T15:25:48.490Z,101212.44
2019-02-19T15:29:06.782Z,101204.92
2019-02-19T15:32:18.261Z,101212.58
2019-02-19T15:35:27.673Z,101207.20
2019-02-19T15:38:36.640Z,101219.13
2019-02-19T15:41:45.689Z,101221.23
2019-02-19T15:44:47.615Z,101227.13
2019-02-19T15:47:55.726Z,101215.11
2019-02-19T15:51:07.799Z,101210.95
2019-02-19T15:54:08.529Z,101214.20
2019-02-19T15:57:20.405Z,101209.42
2019-02-19T16:00:42.044Z,101212.58
2019-02-19T16:03:38.403Z,101210.16
2019-02-19T16:06:48.596Z,101219.22
2019-02-19T16:09:56.549Z,101217.16
2019-02-19T16:13:11.780Z,101211.06
2019-02-19T16:16:19.783Z,101216.09
2019-02-19T16:19:38.460Z,101214.78
2019-02-19T16:22:49.991Z,101221.02
2019-02-19T16:26:01.430Z,101220.58
2019-02-19T16:29:19.521Z,101217.16
2019-02-19T16:32:35.144Z,101220.41
2019-02-19T16:35:37.512Z,101215.63
2019-02-19T16:38:40.381Z,101219.08
2019-02-19T16:41:48.368Z,101218.92
2019-02-19T16:45:13.104Z,101218.92
2019-02-19T16:48:36.693Z,101221.04
2019-02-19T16:51:47.534Z,101221.52
2019-02-19T16:54:54.755Z,101215.84
2019-02-19T16:58:04.143Z,101220.17
2019-02-19T17:01:06.562Z,101219.20
2019-02-19T17:04:16.555Z,101215.70
2019-02-19T17:07:18.260Z,101219.41
2019-02-19T17:10:47.143Z,101217.03
2019-02-19T17:14:02.265Z,101225.22
2019-02-19T17:17:07.001Z,101230.20
2019-02-19T17:20:28.928Z,101230.78
2019-02-19T17:23:25.387Z,101232.88
2019-02-19T17:26:30.645Z,101232.80
2019-02-19T17:29:42.474Z,101230.20
2019-02-19T17:32:49.058Z,101235.94
2019-02-19T17:35:45.999Z,101237.16
2019-02-19T17:38:57.986Z,101232.53
2019-02-19T17:41:57.053Z,101236.50
2019-02-19T17:44:59.471Z,101231.55
2019-02-19T17:48:17.894Z,101239.03
2019-02-19T17:51:30.091Z,101236.36
2019-02-19T17:54:34.625Z,101240.94
2019-02-19T17:57:43.923Z,101235.99
2019-02-19T18:00:49.108Z,101235.02
2019-02-19T18:04:01.398Z,101231.98
2019-02-19T18:07:28.434Z,101233.52
2019-02-19T18:11:05.263Z,101234.66
2019-02-19T18:14:17.378Z,101231.22
2019-02-19T18:17:29.975Z,101232.28
2019-02-19T18:20:20.074Z,101228.64
2019-02-19T18:23:10.384Z,101227.97
2019-02-19T18:26:01.144Z,101227.61
2019-02-19T18:28:54.083Z,101230.08
2019-02-19T18:31:44.260Z,101225.30
2019-02-19T18:34:34.761Z,101231.11
2019-02-19T18:37:25.099Z,101228.54
2019-02-19T18:40:15.515Z,101222.16
2019-02-19T18:43:05.873Z,101228.27
2019-02-19T18:45:56.169Z,101231.05
2019-02-19T18:48:46.480Z,101227.50
2019-02-19T18:51:37.901Z,101227.10
2019-02-19T18:54:28.786Z,101222.15
2019-02-19T18:57:19.071Z,101229.14
2019-02-19T19:00:10.509Z,101231.05
2019-02-19T19:03:00.600Z,101231.52
2019-02-19T19:05:51.070Z,101226.83
2019-02-19T19:08:41.441Z,101228.73
2019-02-19T19:11:31.904Z,101228.17
2019-02-19T19:14:22.113Z,101231.41
2019-02-19T19:17:12.407Z,101236.56
2019-02-19T19:20:02.703Z,101234.76
2019-02-19T19:22:53.036Z,101239.34
2019-02-19T19:25:44.068Z,101242.48
2019-02-19T19:28:34.452Z,101244.59
2019-02-19T19:31:32.982Z,101236.77
2019-02-19T19:34:16.400Z,101239.44
2019-02-19T19:37:06.683Z,101245.36
2019-02-19T19:39:56.935Z,101248.91
2019-02-19T19:42:47.086Z,101244.89
2019-02-19T19:45:37.431Z,101251.48
2019-02-19T19:48:27.443Z,101254.36
2019-02-19T19:51:18.094Z,101257.03
2019-02-19T19:54:08.356Z,101253.48
2019-02-19T19:56:58.878Z,101255.69
2019-02-19T19:59:48.892Z,101253.59
2019-02-19T20:02:39.514Z,101252.82
2019-02-19T20:05:29.568Z,101258.53
2019-02-19T20:08:20.102Z,101255.39
2019-02-19T20:11:10.298Z,101253.59
2019-02-19T20:14:00.683Z,101251.38
2019-02-19T20:16:52.038Z,101246.80
2019-02-19T20:19:42.195Z,101249.75
2019-02-19T20:22:32.458Z,101247.84
2019-02-19T20:25:22.602Z,101244.89
2019-02-19T20:28:12.679Z,101250.14
2019-02-19T20:31:03.928Z,101240.57
2019-02-19T20:33:54.166Z,101247.86
2019-02-19T20:36:44.552Z,101246.31
2019-02-19T20:39:34.788Z,101242.67
2019-02-19T20:42:25.327Z,101243.26
2019-02-19T20:45:15.577Z,101232.55
2019-02-19T20:48:06.028Z,101231.58
2019-02-19T20:50:56.043Z,101232.64
2019-02-19T20:53:46.224Z,101230.63
2019-02-19T20:56:36.651Z,101227.38
2019-02-19T20:59:26.806Z,101223.84
2019-02-19T21:02:17.032Z,101226.21
2019-02-19T21:05:07.813Z,101225.82
2019-02-19T21:07:58.172Z,101219.75
2019-02-19T21:10:48.690Z,101222.05
2019-02-19T21:13:38.724Z,101214.22
2019-02-19T21:16:29.151Z,101214.13
2019-02-19T21:19:19.532Z,101206.28
2019-02-19T21:22:09.974Z,101208.95
2019-02-19T21:25:00.335Z,101211.62
2019-02-19T21:27:50.829Z,101212.19
2019-02-19T21:30:41.173Z,101205.41
2019-02-19T21:33:31.520Z,101205.51
2019-02-19T21:36:21.819Z,101206.28
2019-02-19T21:39:12.763Z,101204.36
2019-02-19T21:42:03.237Z,101208.43
2019-02-19T21:44:53.614Z,101202.45
2019-02-19T21:47:43.921Z,101204.71
2019-02-19T21:50:34.435Z,101200.33
2019-02-19T21:53:24.715Z,101200.33
2019-02-19T21:56:15.001Z,101199.84
2019-02-19T21:59:05.307Z,101197.73
2019-02-19T22:01:55.966Z,101199.72
2019-02-19T22:04:46.229Z,101190.81
2019-02-19T22:07:36.645Z,101194.72
2019-02-19T22:10:27.175Z,101194.56
2019-02-19T22:13:17.630Z,101192.27
2019-02-19T22:16:08.989Z,101192.80
2019-02-19T22:18:59.123Z,101190.50
2019-02-19T22:22:03.554Z,101191.06
2019-02-19T22:24:51.405Z,101190.78
2019-02-19T22:27:41.623Z,101187.09
2019-02-19T22:30:31.759Z,101188.88
2019-02-19T22:33:21.901Z,101186.30
2019-02-19T22:36:12.478Z,101187.83
2019-02-19T22:39:06.529Z,101188.76
2019-02-19T22:41:58.350Z,101186.96
2019-02-19T22:44:48.744Z,101188.48
2019-02-19T22:47:39.123Z,101187.61
2019-02-19T22:50:29.294Z,101190.19
2019-02-19T22:53:37.365Z,101188.27
2019-02-19T22:56:30.286Z,101192.17
2019-02-19T22:59:21.608Z,101188.91
2019-02-19T23:02:31.731Z,101193.32
2019-02-19T23:05:22.196Z,101191.20
2019-02-19T23:08:12.376Z,101198.01
2019-02-19T23:11:02.719Z,101188.54
2019-02-19T23:13:52.996Z,101184.66
2019-02-19T23:16:43.123Z,101196.67
2019-02-19T23:19:33.560Z,101191.02
2019-02-19T23:22:24.196Z,101192.27
2019-02-19T23:25:18.545Z,101188.48
2019-02-19T23:28:08.582Z,101181.49
2019-02-19T23:30:58.906Z,101184.66
2019-02-19T23:33:49.166Z,101183.83
2019-02-19T23:36:46.971Z,101185.53
2019-02-19T23:39:43.381Z,101185.94
2019-02-19T23:42:28.603Z,101189.72
2019-02-19T23:45:18.978Z,101191.83
2019-02-19T23:48:09.154Z,101183.14
2019-02-19T23:50:59.628Z,101184.75
2019-02-19T23:53:50.188Z,101182.86
2019-02-19T23:56:40.674Z,101177.03
2019-02-19T23:59:31.011Z,101185.41
